createdAt,value
2018-04-11T00:00:57.522Z,11.00
2018-04-11T00:03:23.731Z,10.90
2018-04-11T00:05:49.923Z,10.90
2018-04-11T00:08:16.115Z,11.00
2018-04-11T00:10:42.334Z,11.00
2018-04-11T00:13:08.523Z,11.00
2018-04-11T00:15:34.719Z,11.00
2018-04-11T00:18:00.927Z,11.00
2018-04-11T00:20:27.148Z,11.10
2018-04-11T00:22:53.362Z,11.10
2018-04-11T00:25:19.594Z,11.20
2018-04-11T00:27:45.778Z,11.10
2018-04-11T00:30:12.004Z,10.90
2018-04-11T00:32:38.233Z,11.00
2018-04-11T00:35:04.469Z,11.00
2018-04-11T00:37:30.675Z,11.20
2018-04-11T00:39:56.882Z,11.20
2018-04-11T00:42:23.081Z,11.20
2018-04-11T00:44:49.668Z,11.10
2018-04-11T00:47:15.865Z,11.10
2018-04-11T00:49:42.087Z,11.00
2018-04-11T00:52:08.339Z,11.00
2018-04-11T00:54:34.552Z,11.10
2018-04-11T00:57:00.749Z,11.00
2018-04-11T00:59:26.975Z,11.00
2018-04-11T01:01:53.179Z,11.10
2018-04-11T01:04:19.405Z,11.00
2018-04-11T01:06:45.627Z,11.00
2018-04-11T01:09:11.861Z,11.00
2018-04-11T01:11:38.087Z,11.00
2018-04-11T01:14:04.301Z,11.00
2018-04-11T01:16:30.539Z,10.90
2018-04-11T01:18:56.750Z,10.90
2018-04-11T01:21:22.986Z,10.80
2018-04-11T01:23:49.193Z,10.90
2018-04-11T01:26:15.394Z,10.80
2018-04-11T01:28:41.600Z,10.80
2018-04-11T01:31:08.186Z,10.80
2018-04-11T01:33:34.390Z,10.80
2018-04-11T01:36:00.605Z,10.80
2018-04-11T01:38:26.822Z,10.80
2018-04-11T01:40:53.404Z,10.90
2018-04-11T01:43:19.627Z,10.90
2018-04-11T01:45:45.859Z,10.90
2018-04-11T01:48:12.081Z,10.70
2018-04-11T01:50:38.298Z,10.70
2018-04-11T01:53:04.544Z,10.70
2018-04-11T01:55:30.770Z,10.70
2018-04-11T01:57:56.988Z,10.60
2018-04-11T02:00:23.215Z,10.70
2018-04-11T02:02:49.418Z,10.60
2018-04-11T02:05:16.005Z,10.60
2018-04-11T02:07:42.212Z,10.50
2018-04-11T02:10:08.438Z,10.60
2018-04-11T02:12:34.652Z,10.50
2018-04-11T02:15:00.857Z,10.50
2018-04-11T02:17:27.111Z,10.50
2018-04-11T02:19:53.338Z,10.40
2018-04-11T02:22:19.580Z,10.50
2018-04-11T02:24:45.797Z,10.40
2018-04-11T02:27:12.016Z,10.40
2018-04-11T02:29:38.234Z,10.40
2018-04-11T02:32:04.852Z,10.30
2018-04-11T02:34:31.078Z,10.30
2018-04-11T02:36:57.327Z,10.30
2018-04-11T02:39:23.946Z,10.30
2018-04-11T02:41:50.161Z,10.30
2018-04-11T02:44:16.945Z,10.20
2018-04-11T02:46:43.167Z,10.10
2018-04-11T02:49:09.738Z,10.10
2018-04-11T02:51:35.943Z,10.10
2018-04-11T02:54:02.157Z,10.10
2018-04-11T02:56:28.376Z,10.00
2018-04-11T02:58:54.574Z,10.10
2018-04-11T03:01:20.786Z,10.10
2018-04-11T03:03:47.001Z,10.20
2018-04-11T03:06:13.219Z,10.20
2018-04-11T03:08:39.432Z,10.20
2018-04-11T03:11:06.232Z,10.10
2018-04-11T03:13:32.435Z,10.20
2018-04-11T03:15:58.632Z,10.30
2018-04-11T03:18:24.833Z,10.20
2018-04-11T03:20:51.049Z,10.10
2018-04-11T03:23:17.258Z,10.20
2018-04-11T03:25:43.466Z,10.10
2018-04-11T03:28:10.299Z,10.10
2018-04-11T03:30:36.490Z,10.10
2018-04-11T03:33:03.081Z,10.30
2018-04-11T03:35:29.283Z,10.30
2018-04-11T03:37:55.495Z,10.20
2018-04-11T03:40:21.687Z,10.20
2018-04-11T03:42:47.947Z,10.10
2018-04-11T03:45:14.160Z,10.00
2018-04-11T03:47:40.373Z,9.90
2018-04-11T03:50:06.568Z,9.80
2018-04-11T03:52:32.780Z,9.70
2018-04-11T03:54:59.012Z,9.70
2018-04-11T03:57:25.231Z,9.70
2018-04-11T03:59:51.422Z,9.70
2018-04-11T04:02:17.996Z,9.60
2018-04-11T04:04:44.199Z,9.60
2018-04-11T04:07:10.414Z,9.50
2018-04-11T04:09:36.592Z,9.40
2018-04-11T04:12:02.850Z,9.40
2018-04-11T04:14:41.293Z,9.30
2018-04-11T04:17:28.847Z,9.10
2018-04-11T04:20:07.177Z,9.10
2018-04-11T04:22:33.419Z,9.00
2018-04-11T04:24:59.649Z,8.90
2018-04-11T04:27:25.893Z,8.80
2018-04-11T04:29:52.208Z,8.80
2018-04-11T04:32:18.469Z,8.90
2018-04-11T04:34:45.040Z,8.90
2018-04-11T04:37:11.278Z,8.80
2018-04-11T04:39:37.531Z,8.70
2018-04-11T04:42:03.774Z,8.70
2018-04-11T04:44:29.985Z,8.80
2018-04-11T04:46:56.244Z,8.90
2018-04-11T04:49:22.852Z,8.80
2018-04-11T04:51:49.094Z,8.80
2018-04-11T04:54:15.322Z,8.80
2018-04-11T04:56:41.541Z,8.90
2018-04-11T04:59:07.769Z,8.80
2018-04-11T05:01:33.983Z,8.80
2018-04-11T05:04:00.224Z,8.80
2018-04-11T05:06:26.423Z,8.80
2018-04-11T05:08:52.645Z,8.80
2018-04-11T05:11:18.880Z,8.80
2018-04-11T05:13:45.146Z,8.80
2018-04-11T05:16:11.403Z,8.60
2018-04-11T05:18:38.353Z,8.70
2018-04-11T05:21:04.567Z,8.70
2018-04-11T05:23:30.806Z,8.60
2018-04-11T05:25:57.035Z,8.60
2018-04-11T05:28:23.674Z,8.60
2018-04-11T05:30:49.945Z,8.60
2018-04-11T05:33:16.247Z,8.70
2018-04-11T05:35:42.474Z,8.60
2018-04-11T05:38:08.730Z,8.60
2018-04-11T05:40:35.000Z,8.70
2018-04-11T05:43:01.260Z,8.70
2018-04-11T05:45:27.461Z,8.70
2018-04-11T05:47:53.738Z,8.80
2018-04-11T05:50:19.912Z,8.70
2018-04-11T05:52:46.511Z,8.90
2018-04-11T05:55:12.721Z,8.90
2018-04-11T05:57:39.520Z,9.10
2018-04-11T06:00:06.152Z,9.00
2018-04-11T06:02:33.731Z,9.00
2018-04-11T06:04:59.968Z,9.00
2018-04-11T06:07:26.183Z,8.90
2018-04-11T06:09:52.447Z,9.10
2018-04-11T06:12:18.722Z,9.20
2018-04-11T06:14:45.352Z,9.40
2018-04-11T06:17:11.853Z,9.50
2018-04-11T06:19:38.509Z,9.50
2018-04-11T06:22:05.683Z,9.50
2018-04-11T06:24:32.307Z,9.60
2018-04-11T06:26:58.515Z,9.60
2018-04-11T06:29:24.748Z,9.60
2018-04-11T06:31:50.959Z,9.70
2018-04-11T06:34:17.213Z,9.70
2018-04-11T06:36:43.463Z,10.00
2018-04-11T06:39:10.094Z,10.10
2018-04-11T06:41:36.712Z,10.30
2018-04-11T06:44:02.944Z,10.30
2018-04-11T06:46:29.162Z,10.40
2018-04-11T06:48:55.412Z,10.40
2018-04-11T06:51:21.613Z,10.50
2018-04-11T06:53:47.827Z,10.50
2018-04-11T06:56:14.053Z,10.60
2018-04-11T06:58:40.289Z,10.60
2018-04-11T07:01:06.500Z,10.70
2018-04-11T07:03:32.740Z,10.80
2018-04-11T07:05:58.934Z,10.90
2018-04-11T07:08:25.161Z,10.80
2018-04-11T07:10:51.394Z,10.90
2018-04-11T07:13:18.218Z,11.00
2018-04-11T07:15:44.456Z,11.20
2018-04-11T07:18:10.667Z,11.30
2018-04-11T07:20:36.970Z,11.40
2018-04-11T07:23:03.193Z,11.50
2018-04-11T07:25:29.395Z,11.70
2018-04-11T07:27:55.596Z,11.80
2018-04-11T07:30:22.178Z,11.70
2018-04-11T07:32:48.388Z,11.70
2018-04-11T07:35:14.627Z,11.80
2018-04-11T07:37:40.824Z,12.00
2018-04-11T07:40:08.031Z,12.20
2018-04-11T07:42:34.219Z,12.30
2018-04-11T07:45:00.500Z,12.30
2018-04-11T07:47:26.699Z,12.00
2018-04-11T07:49:53.902Z,11.90
2018-04-11T07:52:20.162Z,12.20
2018-04-11T07:54:46.358Z,12.50
2018-04-11T07:57:12.968Z,12.90
2018-04-11T07:59:39.197Z,12.90
2018-04-11T08:02:05.418Z,13.00
2018-04-11T08:04:31.694Z,13.10
2018-04-11T08:06:57.920Z,13.10
2018-04-11T08:09:24.148Z,13.20
2018-04-11T08:11:50.417Z,13.00
2018-04-11T08:14:16.726Z,13.20
2018-04-11T08:16:42.991Z,13.40
2018-04-11T08:19:09.238Z,13.60
2018-04-11T08:21:35.539Z,13.80
2018-04-11T08:24:01.665Z,13.90
2018-04-11T08:26:34.808Z,14.00
2018-04-11T08:29:01.064Z,14.20
2018-04-11T08:31:27.347Z,14.10
2018-04-11T08:33:53.929Z,14.20
2018-04-11T08:36:20.163Z,14.20
2018-04-11T08:38:46.391Z,14.30
2018-04-11T08:41:12.646Z,14.40
2018-04-11T08:43:38.861Z,14.60
2018-04-11T08:46:05.091Z,14.30
2018-04-11T08:48:31.292Z,14.10
2018-04-11T08:50:57.524Z,14.30
2018-04-11T08:53:23.767Z,14.20
2018-04-11T08:55:49.984Z,14.50
2018-04-11T08:58:16.189Z,14.80
2018-04-11T09:00:43.219Z,15.10
2018-04-11T09:03:09.441Z,15.20
2018-04-11T09:05:35.763Z,15.40
2018-04-11T09:08:02.423Z,15.60
2018-04-11T09:10:28.685Z,15.60
2018-04-11T09:12:54.916Z,15.70
2018-04-11T09:15:21.161Z,15.80
2018-04-11T09:17:47.363Z,15.70
2018-04-11T09:20:13.615Z,15.80
2018-04-11T09:22:39.847Z,15.90
2018-04-11T09:25:06.082Z,16.00
2018-04-11T09:27:32.296Z,16.10
2018-04-11T09:29:58.554Z,16.20
2018-04-11T09:32:25.587Z,16.00
2018-04-11T09:34:51.824Z,15.90
2018-04-11T09:37:18.066Z,15.90
2018-04-11T09:39:44.670Z,16.10
2018-04-11T09:42:10.918Z,16.10
2018-04-11T09:44:38.037Z,16.20
2018-04-11T09:47:04.239Z,16.20
2018-04-11T09:49:30.479Z,16.40
2018-04-11T09:51:56.710Z,16.50
2018-04-11T09:54:22.976Z,16.60
2018-04-11T09:56:49.215Z,16.80
2018-04-11T09:59:15.454Z,17.00
2018-04-11T10:01:48.091Z,17.20
2018-04-11T10:04:14.319Z,17.20
2018-04-11T10:06:41.228Z,17.40
2018-04-11T10:09:07.469Z,17.60
2018-04-11T10:11:33.700Z,17.90
2018-04-11T10:14:00.979Z,18.00
2018-04-11T10:16:27.236Z,18.30
2018-04-11T10:18:53.841Z,18.70
2018-04-11T10:21:20.097Z,18.70
2018-04-11T10:23:47.770Z,19.00
2018-04-11T10:26:14.388Z,19.70
2018-04-11T10:28:40.639Z,19.70
2018-04-11T10:31:07.255Z,24.00
2018-04-11T10:33:33.466Z,24.00
2018-04-11T10:35:59.699Z,26.20
2018-04-11T10:38:25.929Z,28.00
2018-04-11T10:40:52.146Z,29.70
2018-04-11T10:43:18.892Z,30.20
2018-04-11T10:45:45.133Z,31.00
2018-04-11T10:48:11.377Z,31.60
2018-04-11T10:50:37.588Z,31.90
2018-04-11T10:53:03.858Z,31.10
2018-04-11T10:55:30.076Z,32.00
2018-04-11T10:57:56.291Z,33.50
2018-04-11T11:00:22.516Z,34.40
2018-04-11T11:02:50.405Z,35.20
2018-04-11T11:05:16.631Z,37.20
2018-04-11T11:07:46.567Z,38.90
2018-04-11T11:10:12.844Z,38.20
2018-04-11T11:12:40.363Z,38.90
2018-04-11T11:15:06.559Z,39.80
2018-04-11T11:17:33.170Z,40.80
2018-04-11T11:20:00.389Z,40.90
2018-04-11T11:22:26.649Z,41.00
2018-04-11T11:24:52.847Z,41.00
2018-04-11T11:27:19.096Z,41.50
2018-04-11T11:29:45.326Z,42.70
2018-04-11T11:32:11.547Z,43.50
2018-04-11T11:34:37.788Z,43.90
2018-04-11T11:37:04.051Z,44.10
2018-04-11T11:39:30.328Z,44.80
2018-04-11T11:41:57.343Z,45.50
2018-04-11T11:44:24.160Z,45.30
2018-04-11T11:46:50.401Z,45.30
2018-04-11T11:49:16.624Z,45.00
2018-04-11T11:51:42.876Z,43.20
2018-04-11T11:54:09.090Z,41.60
2018-04-11T11:56:35.316Z,39.60
2018-04-11T11:59:01.611Z,40.90
2018-04-11T12:01:27.871Z,42.00
2018-04-11T12:03:54.077Z,43.30
2018-04-11T12:06:20.291Z,44.40
2018-04-11T12:08:46.552Z,45.20
2018-04-11T12:11:12.764Z,45.80
2018-04-11T12:13:39.017Z,45.50
2018-04-11T12:16:05.224Z,45.80
2018-04-11T12:18:31.456Z,45.80
2018-04-11T12:20:57.673Z,46.30
2018-04-11T12:23:24.511Z,45.50
2018-04-11T12:25:50.770Z,45.00
2018-04-11T12:28:17.027Z,44.90
2018-04-11T12:30:43.251Z,41.90
2018-04-11T12:33:09.453Z,37.70
2018-04-11T12:35:35.662Z,34.20
2018-04-11T12:38:01.884Z,31.70
2018-04-11T12:40:28.149Z,29.40
2018-04-11T12:42:54.465Z,28.80
2018-04-11T12:45:20.682Z,30.40
2018-04-11T12:47:46.948Z,32.00
2018-04-11T12:50:13.976Z,31.20
2018-04-11T12:52:40.205Z,29.60
2018-04-11T12:55:06.421Z,28.20
2018-04-11T12:57:32.701Z,27.40
2018-04-11T12:59:58.929Z,27.70
2018-04-11T13:02:25.127Z,28.20
2018-04-11T13:04:52.281Z,28.80
2018-04-11T13:07:19.465Z,29.20
2018-04-11T13:09:45.708Z,29.30
2018-04-11T13:12:11.944Z,29.30
2018-04-11T13:14:38.599Z,28.30
2018-04-11T13:17:04.830Z,28.30
2018-04-11T13:19:31.098Z,27.40
2018-04-11T13:21:57.389Z,26.70
2018-04-11T13:24:23.631Z,26.30
2018-04-11T13:26:49.854Z,26.70
2018-04-11T13:29:16.101Z,27.30
2018-04-11T13:31:42.317Z,27.50
2018-04-11T13:34:08.570Z,27.60
2018-04-11T13:36:34.801Z,27.20
2018-04-11T13:39:02.042Z,27.10
2018-04-11T13:41:28.827Z,27.30
2018-04-11T13:43:55.079Z,27.50
2018-04-11T13:46:21.356Z,27.90
2018-04-11T13:48:47.639Z,27.90
2018-04-11T13:51:13.876Z,27.90
2018-04-11T13:53:40.788Z,27.70
2018-04-11T13:56:07.601Z,27.40
2018-04-11T13:58:33.842Z,27.40
2018-04-11T14:01:00.092Z,27.50
2018-04-11T14:03:26.431Z,27.60
2018-04-11T14:05:53.659Z,27.40
2018-04-11T14:08:20.310Z,27.30
2018-04-11T14:10:46.550Z,27.30
2018-04-11T14:13:12.842Z,27.20
2018-04-11T14:15:39.071Z,27.20
2018-04-11T14:18:06.108Z,27.00
2018-04-11T14:20:32.387Z,26.90
2018-04-11T14:22:59.458Z,27.00
2018-04-11T14:25:25.810Z,26.80
2018-04-11T14:27:52.379Z,26.90
2018-04-11T14:30:19.013Z,26.90
2018-04-11T14:32:45.620Z,27.00
2018-04-11T14:35:11.977Z,27.00
2018-04-11T14:37:39.255Z,27.30
2018-04-11T14:40:05.577Z,27.30
2018-04-11T14:42:32.227Z,27.30
2018-04-11T14:44:58.488Z,27.30
2018-04-11T14:47:24.817Z,27.30
2018-04-11T14:49:51.093Z,27.20
2018-04-11T14:52:17.722Z,27.10
2018-04-11T14:54:43.986Z,27.10
2018-04-11T14:57:10.250Z,26.90
2018-04-11T14:59:36.475Z,26.70
2018-04-11T15:02:03.360Z,26.60
2018-04-11T15:04:29.644Z,26.50
2018-04-11T15:06:55.855Z,26.50
2018-04-11T15:09:22.131Z,26.40
2018-04-11T15:11:48.382Z,26.30
2018-04-11T15:14:14.969Z,26.50
2018-04-11T15:16:41.216Z,26.50
2018-04-11T15:19:07.450Z,26.50
2018-04-11T15:21:34.309Z,26.40
2018-04-11T15:24:00.901Z,26.30
2018-04-11T15:26:27.153Z,26.30
2018-04-11T15:28:54.216Z,26.30
2018-04-11T15:31:20.458Z,26.10
2018-04-11T15:33:47.728Z,26.50
2018-04-11T15:36:13.980Z,26.50
2018-04-11T15:38:40.235Z,26.60
2018-04-11T15:41:06.577Z,26.50
2018-04-11T15:43:32.830Z,25.90
2018-04-11T15:45:59.447Z,25.40
2018-04-11T15:48:25.687Z,25.40
2018-04-11T15:50:52.383Z,25.30
2018-04-11T15:53:18.636Z,25.30
2018-04-11T15:55:45.818Z,25.20
2018-04-11T15:58:12.066Z,25.10
2018-04-11T16:00:38.333Z,25.00
2018-04-11T16:03:04.563Z,25.10
2018-04-11T16:05:30.820Z,25.10
2018-04-11T16:07:57.584Z,24.90
2018-04-11T16:10:23.859Z,24.70
2018-04-11T16:12:50.308Z,24.60
2018-04-11T16:15:17.114Z,24.50
2018-04-11T16:17:43.386Z,24.10
2018-04-11T16:20:10.282Z,23.70
2018-04-11T16:22:36.516Z,23.40
2018-04-11T16:25:04.219Z,23.10
2018-04-11T16:27:30.513Z,22.90
2018-04-11T16:29:57.733Z,22.80
2018-04-11T16:32:23.987Z,22.40
2018-04-11T16:34:50.260Z,22.10
2018-04-11T16:37:16.494Z,22.10
2018-04-11T16:39:44.404Z,22.10
2018-04-11T16:42:10.691Z,22.00
2018-04-11T16:44:37.822Z,21.80
2018-04-11T16:47:04.084Z,21.80
2018-04-11T16:49:31.382Z,21.50
2018-04-11T16:51:57.615Z,21.50
2018-04-11T16:54:23.858Z,21.40
2018-04-11T16:56:50.115Z,21.30
2018-04-11T16:59:16.692Z,21.20
2018-04-11T17:01:42.918Z,21.20
2018-04-11T17:04:09.178Z,21.20
2018-04-11T17:06:36.176Z,21.10
2018-04-11T17:09:02.505Z,20.90
2018-04-11T17:11:28.786Z,20.80
2018-04-11T17:13:55.028Z,20.70
2018-04-11T17:16:21.318Z,20.70
2018-04-11T17:18:47.597Z,20.60
2018-04-11T17:21:26.462Z,20.40
2018-04-11T17:24:04.897Z,20.50
2018-04-11T17:26:43.327Z,20.20
2018-04-11T17:29:21.773Z,20.00
2018-04-11T17:31:48.082Z,19.90
2018-04-11T17:34:14.710Z,19.70
2018-04-11T17:36:40.959Z,19.70
2018-04-11T17:39:08.632Z,19.50
2018-04-11T17:41:35.560Z,19.60
2018-04-11T17:44:02.466Z,19.50
2018-04-11T17:46:28.724Z,19.30
2018-04-11T17:48:54.951Z,19.20
2018-04-11T17:51:21.291Z,19.20
2018-04-11T17:53:47.521Z,19.20
2018-04-11T17:56:13.798Z,19.10
2018-04-11T17:58:40.066Z,19.00
2018-04-11T18:01:06.325Z,18.90
2018-04-11T18:03:32.573Z,18.70
2018-04-11T18:05:58.867Z,18.60
2018-04-11T18:08:25.141Z,18.50
2018-04-11T18:10:51.413Z,18.40
2018-04-11T18:13:17.641Z,18.30
2018-04-11T18:15:45.058Z,18.30
2018-04-11T18:18:11.322Z,18.20
2018-04-11T18:20:37.552Z,18.20
2018-04-11T18:23:03.837Z,18.20
2018-04-11T18:25:30.154Z,18.10
2018-04-11T18:27:56.774Z,18.00
2018-04-11T18:30:23.039Z,18.00
2018-04-11T18:32:49.387Z,17.90
2018-04-11T18:35:15.672Z,17.80
2018-04-11T18:37:41.914Z,17.70
2018-04-11T18:40:08.763Z,17.60
2018-04-11T18:42:35.038Z,17.70
2018-04-11T18:45:01.332Z,17.50
2018-04-11T18:47:28.556Z,17.50
2018-04-11T18:49:54.875Z,17.50
2018-04-11T18:52:21.461Z,17.40
2018-04-11T18:54:47.781Z,17.30
2018-04-11T18:57:14.125Z,17.20
2018-04-11T18:59:40.361Z,17.10
2018-04-11T19:02:06.609Z,16.90
2018-04-11T19:04:32.846Z,16.80
2018-04-11T19:06:59.521Z,16.50
2018-04-11T19:09:25.767Z,16.50
2018-04-11T19:11:52.068Z,16.40
2018-04-11T19:14:18.400Z,16.30
2018-04-11T19:16:44.678Z,16.30
2018-04-11T19:19:11.006Z,16.20
2018-04-11T19:21:38.260Z,16.10
2018-04-11T19:24:04.543Z,16.10
2018-04-11T19:26:30.855Z,16.10
2018-04-11T19:28:57.184Z,16.10
2018-04-11T19:31:23.458Z,16.00
2018-04-11T19:33:49.726Z,16.10
2018-04-11T19:36:16.374Z,16.10
2018-04-11T19:38:43.037Z,16.10
2018-04-11T19:41:09.331Z,16.10
2018-04-11T19:43:36.035Z,16.30
2018-04-11T19:46:02.323Z,16.30
2018-04-11T19:48:29.673Z,16.20
2018-04-11T19:50:56.419Z,16.30
2018-04-11T19:53:22.681Z,16.30
2018-04-11T19:55:48.992Z,16.30
2018-04-11T19:58:15.853Z,16.20
2018-04-11T20:00:42.137Z,16.30
2018-04-11T20:03:09.756Z,16.20
2018-04-11T20:05:37.024Z,16.20
2018-04-11T20:08:03.283Z,16.20
2018-04-11T20:10:29.917Z,16.20
2018-04-11T20:12:56.525Z,16.20
2018-04-11T20:15:22.777Z,16.20
2018-04-11T20:17:50.040Z,16.20
2018-04-11T20:20:16.685Z,16.20
2018-04-11T20:22:42.951Z,16.20
2018-04-11T20:25:09.278Z,16.20
2018-04-11T20:27:35.586Z,16.10
2018-04-11T20:30:02.483Z,16.00
2018-04-11T20:32:28.819Z,16.00
2018-04-11T20:34:55.098Z,15.90
2018-04-11T20:37:21.371Z,15.90
2018-04-11T20:39:47.647Z,16.00
2018-04-11T20:42:14.263Z,16.00
2018-04-11T20:44:40.534Z,16.00
2018-04-11T20:47:06.886Z,15.90
2018-04-11T20:49:33.118Z,16.00
2018-04-11T20:51:59.355Z,15.90
2018-04-11T20:54:25.590Z,15.90
2018-04-11T20:56:52.830Z,15.90
2018-04-11T20:59:19.072Z,15.90
2018-04-11T21:01:45.281Z,15.90
2018-04-11T21:04:11.538Z,15.90
2018-04-11T21:06:37.779Z,15.80
2018-04-11T21:09:04.137Z,15.80
2018-04-11T21:11:30.790Z,15.80
2018-04-11T21:13:57.044Z,15.70
2018-04-11T21:16:23.258Z,15.80
2018-04-11T21:18:49.513Z,15.70
2018-04-11T21:21:15.773Z,15.60
2018-04-11T21:23:42.062Z,15.60
2018-04-11T21:26:09.280Z,15.50
2018-04-11T21:28:35.570Z,15.50
2018-04-11T21:31:01.882Z,15.40
2018-04-11T21:33:28.190Z,15.30
2018-04-11T21:35:54.492Z,15.30
2018-04-11T21:38:21.103Z,15.10
2018-04-11T21:40:47.416Z,15.20
2018-04-11T21:43:13.641Z,15.00
2018-04-11T21:45:39.874Z,15.00
2018-04-11T21:48:06.129Z,15.00
2018-04-11T21:50:32.440Z,15.00
2018-04-11T21:52:58.750Z,15.00
2018-04-11T21:55:25.047Z,15.00
2018-04-11T21:57:51.320Z,15.10
2018-04-11T22:00:17.574Z,15.00
2018-04-11T22:02:43.858Z,15.00
2018-04-11T22:05:10.174Z,15.00
2018-04-11T22:07:36.412Z,14.90
2018-04-11T22:10:02.697Z,14.90
2018-04-11T22:12:29.321Z,15.00
2018-04-11T22:14:55.578Z,15.00
2018-04-11T22:17:21.882Z,15.00
2018-04-11T22:19:48.198Z,15.00
2018-04-11T22:22:14.460Z,14.90
2018-04-11T22:24:40.728Z,14.90
2018-04-11T22:27:07.030Z,15.00
2018-04-11T22:29:33.297Z,15.00
2018-04-11T22:31:59.546Z,15.00
2018-04-11T22:34:26.729Z,15.00
2018-04-11T22:36:52.974Z,15.10
2018-04-11T22:39:19.218Z,15.10
2018-04-11T22:41:45.478Z,15.10
2018-04-11T22:44:11.739Z,15.00
2018-04-11T22:46:38.335Z,15.00
2018-04-11T22:49:04.572Z,15.00
2018-04-11T22:51:30.835Z,14.90
2018-04-11T22:53:57.478Z,14.70
2018-04-11T22:56:24.433Z,14.70
2018-04-11T22:58:50.721Z,14.80
2018-04-11T23:01:16.987Z,14.80
2018-04-11T23:03:43.225Z,14.70
2018-04-11T23:06:09.476Z,14.90
2018-04-11T23:08:35.709Z,14.80
2018-04-11T23:11:01.961Z,14.90
2018-04-11T23:13:28.264Z,14.90
2018-04-11T23:15:54.528Z,14.90
2018-04-11T23:18:20.802Z,15.00
2018-04-11T23:20:47.030Z,15.00
2018-04-11T23:23:13.292Z,15.00
2018-04-11T23:25:39.540Z,15.00
2018-04-11T23:28:05.761Z,15.00
2018-04-11T23:30:31.971Z,15.00
2018-04-11T23:32:58.229Z,15.00
2018-04-11T23:35:31.460Z,15.10
2018-04-11T23:37:57.726Z,15.00
2018-04-11T23:40:23.962Z,15.00
2018-04-11T23:42:50.204Z,15.00
2018-04-11T23:45:16.432Z,15.00
2018-04-11T23:47:42.689Z,14.90
2018-04-11T23:50:09.273Z,15.00
2018-04-11T23:52:35.507Z,15.00
2018-04-11T23:55:01.750Z,14.90
2018-04-11T23:57:27.976Z,14.90
2018-04-11T23:59:54.211Z,14.90
